createdAt,value
2023-01-11T00:00:00.220Z,6.88
2023-01-11T00:02:58.237Z,8.65
2023-01-11T00:05:47.229Z,6.50
2023-01-11T00:08:27.339Z,6.45
2023-01-11T00:11:21.229Z,7.75
2023-01-11T00:14:01.270Z,5.70
2023-01-11T00:16:48.245Z,6.65
2023-01-11T00:19:35.218Z,6.88
2023-01-11T00:22:22.336Z,8.43
2023-01-11T00:25:02.216Z,8.02
2023-01-11T00:27:49.245Z,9.23
2023-01-11T00:30:29.345Z,7.32
2023-01-11T00:33:18.210Z,6.65
2023-01-11T00:35:59.304Z,8.32
2023-01-11T00:41:57.038Z,6.40
2023-01-11T00:45:02.234Z,7.63
2023-01-11T00:47:57.668Z,6.63
2023-01-11T00:50:46.228Z,6.70
2023-01-11T00:53:26.264Z,5.80
2023-01-11T00:56:13.216Z,6.78
2023-01-11T00:58:53.260Z,6.88
2023-01-11T01:01:41.279Z,6.72
2023-01-11T01:04:28.303Z,4.70
2023-01-11T01:07:08.236Z,5.78
2023-01-11T01:09:55.363Z,5.82
2023-01-11T01:12:54.220Z,4.95
2023-01-11T01:15:34.910Z,5.47
2023-01-11T01:18:21.222Z,4.93
2023-01-11T01:21:01.768Z,7.07
2023-01-11T01:23:48.223Z,5.82
2023-01-11T01:26:35.304Z,4.82
2023-01-11T01:29:15.230Z,5.88
2023-01-11T01:31:55.721Z,4.65
2023-01-11T01:34:49.264Z,3.75
2023-01-11T01:37:36.269Z,3.28
2023-01-11T01:40:17.219Z,2.47
2023-01-11T01:45:44.235Z,3.88
2023-01-11T01:48:33.219Z,3.20
2023-01-11T01:51:17.290Z,5.15
2023-01-11T01:54:08.253Z,4.05
2023-01-11T01:56:59.287Z,3.13
2023-01-11T01:59:48.245Z,1.80
2023-01-11T02:02:31.353Z,2.28
2023-01-11T02:05:20.256Z,2.97
2023-01-11T02:08:01.326Z,3.03
2023-01-11T02:13:29.288Z,3.00
2023-01-11T02:19:03.227Z,3.42
2023-01-11T02:22:23.226Z,2.28
2023-01-11T02:25:32.242Z,1.85
2023-01-11T02:28:24.366Z,2.92
2023-01-11T02:31:13.297Z,2.30
2023-01-11T02:34:19.241Z,2.47
2023-01-11T02:37:10.269Z,1.88
2023-01-11T02:40:18.239Z,3.03
2023-01-11T02:43:22.129Z,1.45
2023-01-11T02:46:19.273Z,2.40
2023-01-11T02:49:11.261Z,1.70
2023-01-11T02:52:08.223Z,1.88
2023-01-11T02:55:00.225Z,3.13
2023-01-11T02:57:49.252Z,3.33
2023-01-11T03:00:31.304Z,3.80
2023-01-11T03:03:35.220Z,3.95
2023-01-11T03:06:27.299Z,2.28
2023-01-11T03:09:51.206Z,2.75
2023-01-11T03:13:16.321Z,4.13
2023-01-11T03:16:32.247Z,4.97
2023-01-11T03:19:36.837Z,4.25
2023-01-11T03:22:45.224Z,4.18
2023-01-11T03:25:47.725Z,3.60
2023-01-11T03:29:00.212Z,4.35
2023-01-11T03:32:00.290Z,5.45
2023-01-11T03:35:02.235Z,3.53
2023-01-11T03:38:29.238Z,3.30
2023-01-11T03:41:18.321Z,2.50
2023-01-11T03:44:07.251Z,5.00
2023-01-11T03:46:54.325Z,2.60
2023-01-11T03:49:45.242Z,2.38
2023-01-11T03:52:29.301Z,2.88
2023-01-11T03:55:19.234Z,1.40
2023-01-11T03:58:01.281Z,1.88
2023-01-11T04:00:48.304Z,1.42
2023-01-11T04:03:35.232Z,1.40
2023-01-11T04:06:17.320Z,0.60
2023-01-11T04:09:04.248Z,0.88
2023-01-11T04:11:52.224Z,3.67
2023-01-11T04:14:39.238Z,1.55
2023-01-11T04:17:26.291Z,2.50
2023-01-11T04:20:06.230Z,2.58
2023-01-11T04:22:53.247Z,3.15
2023-01-11T04:25:33.273Z,3.30
2023-01-11T04:28:20.224Z,2.92
2023-01-11T04:31:00.286Z,3.78
2023-01-11T04:33:47.239Z,5.63
2023-01-11T04:36:28.695Z,6.50
2023-01-11T04:42:15.996Z,6.60
2023-01-11T04:45:02.233Z,7.07
2023-01-11T04:47:42.293Z,6.22
2023-01-11T04:50:31.267Z,6.07
2023-01-11T04:53:11.281Z,7.38
2023-01-11T04:56:00.242Z,6.40
2023-01-11T04:58:42.286Z,10.02
2023-01-11T05:01:29.336Z,8.10
2023-01-11T05:04:23.242Z,9.20
2023-01-11T05:07:10.245Z,7.65
2023-01-11T05:09:57.246Z,10.50
2023-01-11T05:15:38.373Z,9.05
2023-01-11T05:18:18.267Z,9.40
2023-01-11T05:21:06.418Z,10.05
2023-01-11T05:23:47.282Z,11.98
2023-01-11T05:26:37.321Z,8.80
2023-01-11T05:29:20.269Z,10.10
2023-01-11T05:32:00.883Z,9.93
2023-01-11T05:34:47.277Z,12.18
2023-01-11T05:40:15.297Z,13.40
2023-01-11T05:43:02.370Z,8.98
2023-01-11T05:45:44.301Z,11.80
2023-01-11T05:48:32.317Z,7.53
2023-01-11T05:51:12.254Z,10.70
2023-01-11T05:53:59.314Z,11.25
2023-01-11T05:56:40.271Z,15.30
2023-01-11T05:59:27.391Z,13.48
2023-01-11T06:02:07.426Z,9.73
2023-01-11T06:04:55.499Z,15.10
2023-01-11T06:07:35.291Z,11.63
2023-01-11T06:10:16.056Z,17.33
2023-01-11T06:13:24.267Z,11.93
2023-01-11T06:16:21.291Z,10.52
2023-01-11T06:19:08.283Z,13.13
2023-01-11T06:21:55.272Z,22.10
2023-01-11T06:24:35.317Z,16.30
2023-01-11T06:27:24.283Z,13.38
2023-01-11T06:30:04.319Z,14.63
2023-01-11T06:32:51.277Z,12.00
2023-01-11T06:35:55.269Z,17.00
2023-01-11T06:38:43.284Z,14.15
2023-01-11T06:41:23.389Z,10.93
2023-01-11T06:44:10.256Z,11.65
2023-01-11T06:46:57.271Z,12.65
2023-01-11T06:49:44.274Z,11.88
2023-01-11T06:52:24.461Z,11.45
2023-01-11T06:55:12.264Z,14.20
2023-01-11T06:57:52.323Z,11.82
2023-01-11T07:00:39.256Z,11.82
2023-01-11T07:03:33.286Z,19.92
2023-01-11T07:06:20.444Z,13.05
2023-01-11T07:09:00.263Z,14.60
2023-01-11T07:11:47.320Z,9.23
2023-01-11T07:14:28.272Z,9.85
2023-01-11T07:19:55.339Z,12.02
2023-01-11T07:22:43.262Z,12.13
2023-01-11T07:25:30.283Z,14.48
2023-01-11T07:28:10.880Z,12.00
2023-01-11T07:30:59.333Z,16.55
2023-01-11T07:33:39.745Z,11.85
2023-01-11T07:36:26.257Z,14.88
2023-01-11T07:39:07.606Z,16.45
2023-01-11T07:42:13.664Z,16.05
2023-01-11T07:45:01.347Z,11.15
2023-01-11T07:47:41.264Z,6.28
2023-01-11T07:50:28.287Z,16.38
2023-01-11T07:53:08.321Z,12.20
2023-01-11T07:55:55.267Z,12.32
2023-01-11T07:58:35.369Z,12.65
2023-01-11T08:01:22.248Z,17.15
2023-01-11T08:04:02.338Z,15.15
2023-01-11T08:06:49.273Z,13.07
2023-01-11T08:09:29.315Z,11.00
2023-01-11T08:12:34.271Z,14.38
2023-01-11T08:15:15.314Z,12.38
2023-01-11T08:20:42.361Z,13.95
2023-01-11T08:23:29.267Z,13.68
2023-01-11T08:26:09.514Z,12.57
2023-01-11T08:28:56.268Z,14.77
2023-01-11T08:31:36.318Z,15.23
2023-01-11T08:34:23.276Z,15.82
2023-01-11T08:37:12.278Z,14.23
2023-01-11T08:39:59.393Z,12.30
2023-01-11T08:42:40.287Z,13.95
2023-01-11T08:48:08.263Z,8.90
2023-01-11T08:50:48.845Z,14.43
2023-01-11T08:53:35.300Z,14.98
2023-01-11T08:56:15.769Z,14.95
2023-01-11T08:59:02.281Z,16.95
2023-01-11T09:01:42.835Z,10.55
2023-01-11T09:04:29.269Z,11.23
2023-01-11T09:07:16.272Z,13.10
2023-01-11T09:09:56.458Z,16.20
2023-01-11T09:12:43.268Z,12.38
2023-01-11T09:15:23.353Z,15.13
2023-01-11T09:18:11.279Z,13.50
2023-01-11T09:20:51.320Z,13.07
2023-01-11T09:23:38.277Z,15.68
2023-01-11T09:26:19.401Z,20.30
2023-01-11T09:31:53.277Z,22.42
2023-01-11T09:34:34.954Z,14.43
2023-01-11T09:37:21.288Z,13.40
2023-01-11T09:40:08.281Z,21.25
2023-01-11T09:45:40.278Z,15.70
2023-01-11T09:48:57.277Z,18.33
2023-01-11T09:51:46.280Z,15.95
2023-01-11T09:54:40.301Z,18.00
2023-01-11T09:58:01.317Z,15.50
2023-01-11T10:01:01.559Z,11.40
2023-01-11T10:04:06.295Z,15.68
2023-01-11T10:07:31.285Z,14.52
2023-01-11T10:18:32.087Z,16.77
2023-01-11T10:18:37.853Z,14.68
2023-01-11T10:20:41.718Z,14.13
2023-01-11T10:23:31.278Z,13.98
2023-01-11T10:26:42.342Z,12.07
2023-01-11T10:29:46.377Z,17.67
2023-01-11T10:32:58.006Z,19.13
2023-01-11T10:36:05.281Z,17.13
2023-01-11T10:39:27.092Z,16.05
2023-01-11T10:42:28.285Z,16.00
2023-01-11T10:45:25.383Z,15.57
2023-01-11T10:48:20.294Z,12.43
2023-01-11T10:51:03.436Z,14.77
2023-01-11T10:54:20.339Z,15.05
2023-01-11T10:57:13.365Z,14.23
2023-01-11T11:00:06.293Z,10.93
2023-01-11T11:03:07.307Z,17.27
2023-01-11T11:06:20.305Z,14.85
2023-01-11T11:09:16.284Z,13.13
2023-01-11T11:12:25.278Z,13.52
2023-01-11T11:15:25.211Z,16.83
2023-01-11T11:18:12.283Z,10.85
2023-01-11T11:23:41.382Z,16.90
2023-01-11T11:26:31.351Z,17.77
2023-01-11T11:29:14.299Z,16.08
2023-01-11T11:32:03.800Z,15.27
2023-01-11T11:34:43.329Z,10.98
2023-01-11T11:37:28.497Z,13.10
2023-01-11T11:40:16.296Z,16.10
2023-01-11T11:43:31.348Z,17.08
2023-01-11T11:46:34.298Z,16.20
2023-01-11T11:49:18.223Z,15.52
2023-01-11T11:52:06.308Z,16.67
2023-01-11T11:55:04.339Z,15.05
2023-01-11T11:57:49.306Z,17.40
2023-01-11T12:00:41.281Z,11.25
2023-01-11T12:03:33.277Z,17.90
2023-01-11T12:06:31.285Z,13.73
2023-01-11T12:09:25.339Z,22.02
2023-01-11T12:12:12.346Z,18.90
2023-01-11T12:15:11.302Z,11.65
2023-01-11T12:17:52.521Z,16.58
2023-01-11T12:20:42.294Z,14.10
2023-01-11T12:23:25.519Z,22.80
2023-01-11T12:26:24.291Z,17.35
2023-01-11T12:29:17.303Z,23.52
2023-01-11T12:32:16.298Z,15.35
2023-01-11T12:35:14.693Z,16.98
2023-01-11T12:38:07.303Z,16.50
2023-01-11T12:41:10.357Z,17.48
2023-01-11T12:44:14.336Z,17.63
2023-01-11T12:47:09.850Z,17.05
2023-01-11T12:50:10.308Z,18.73
2023-01-11T12:53:19.349Z,15.60
2023-01-11T12:56:24.320Z,15.48
2023-01-11T12:59:49.303Z,12.55
2023-01-11T13:02:48.396Z,10.40
2023-01-11T13:06:01.289Z,8.80
2023-01-11T13:08:53.968Z,10.95
2023-01-11T13:11:46.309Z,16.60
2023-01-11T13:14:39.419Z,14.40
2023-01-11T13:17:32.294Z,16.42
2023-01-11T13:20:24.113Z,14.15
2023-01-11T13:23:22.301Z,14.90
2023-01-11T13:26:43.322Z,15.38
2023-01-11T13:29:30.421Z,15.93
2023-01-11T13:35:24.459Z,13.50
2023-01-11T13:38:32.948Z,11.88
2023-01-11T13:41:22.352Z,16.27
2023-01-11T13:44:16.300Z,15.13
2023-01-11T13:47:09.337Z,16.38
2023-01-11T13:50:19.297Z,17.40
2023-01-11T13:53:50.377Z,14.75
2023-01-11T13:56:47.313Z,15.65
2023-01-11T13:59:36.412Z,20.35
2023-01-11T14:02:46.311Z,16.38
2023-01-11T14:05:45.334Z,12.82
2023-01-11T14:08:48.199Z,15.10
2023-01-11T14:12:14.301Z,13.32
2023-01-11T14:15:07.316Z,14.38
2023-01-11T14:18:22.301Z,12.95
2023-01-11T14:21:29.310Z,11.80
2023-01-11T14:24:18.298Z,16.45
2023-01-11T14:27:27.902Z,17.17
2023-01-11T14:30:37.300Z,16.40
2023-01-11T14:33:55.325Z,19.20
2023-01-11T14:37:10.297Z,16.10
2023-01-11T14:40:16.875Z,20.35
2023-01-11T14:43:06.305Z,17.80
2023-01-11T14:45:46.759Z,18.15
2023-01-11T14:49:14.305Z,12.52
2023-01-11T14:52:03.533Z,17.35
2023-01-11T14:55:01.323Z,14.43
2023-01-11T14:57:50.289Z,13.95
2023-01-11T15:00:37.339Z,19.50
2023-01-11T15:06:25.290Z,16.45
2023-01-11T15:09:51.356Z,15.50
2023-01-11T15:12:42.288Z,17.63
2023-01-11T15:15:54.403Z,13.35
2023-01-11T15:18:41.291Z,17.67
2023-01-11T15:21:31.315Z,16.90
2023-01-11T15:24:18.311Z,15.80
2023-01-11T15:27:14.340Z,16.73
2023-01-11T15:30:04.293Z,17.02
2023-01-11T15:32:44.393Z,16.10
2023-01-11T15:35:31.312Z,15.13
2023-01-11T15:38:14.388Z,14.77
2023-01-11T15:41:24.304Z,20.25
2023-01-11T15:44:12.350Z,19.02
2023-01-11T15:47:14.333Z,13.05
2023-01-11T15:50:19.342Z,13.70
2023-01-11T15:53:25.311Z,23.60
2023-01-11T15:56:43.416Z,13.25
2023-01-11T15:59:55.326Z,18.60
2023-01-11T16:02:59.375Z,15.07
2023-01-11T16:06:03.321Z,17.05
2023-01-11T16:09:13.297Z,12.55
2023-01-11T16:12:12.383Z,10.90
2023-01-11T16:15:02.356Z,13.20
2023-01-11T16:17:47.432Z,16.75
2023-01-11T16:20:35.585Z,12.13
2023-01-11T16:23:32.302Z,13.70
2023-01-11T16:26:25.442Z,15.73
2023-01-11T16:29:05.325Z,20.08
2023-01-11T16:32:34.136Z,14.13
2023-01-11T16:35:28.300Z,12.70
2023-01-11T16:38:23.306Z,11.57
2023-01-11T16:41:06.711Z,12.00
2023-01-11T16:43:59.286Z,18.00
2023-01-11T16:47:11.488Z,15.98
2023-01-11T16:50:26.303Z,14.07
2023-01-11T16:53:16.317Z,13.50
2023-01-11T16:56:09.316Z,15.27
2023-01-11T16:58:49.380Z,9.77
2023-01-11T17:02:02.352Z,10.70
2023-01-11T17:04:45.418Z,8.40
2023-01-11T17:07:36.352Z,13.85
2023-01-11T17:10:34.387Z,13.63
2023-01-11T17:13:55.315Z,11.10
2023-01-11T17:17:01.497Z,12.15
2023-01-11T17:19:47.926Z,14.27
2023-01-11T17:22:37.304Z,11.73
2023-01-11T17:25:20.628Z,12.75
2023-01-11T17:28:16.291Z,10.63
2023-01-11T17:30:57.202Z,20.08
2023-01-11T17:36:28.415Z,17.77
2023-01-11T17:42:17.710Z,16.02
2023-01-11T17:45:22.360Z,11.10
2023-01-11T17:48:14.749Z,12.20
2023-01-11T17:51:07.344Z,13.35
2023-01-11T17:53:55.369Z,14.35
2023-01-11T17:56:44.330Z,18.25
2023-01-11T17:59:27.313Z,12.73
2023-01-11T18:02:25.415Z,11.88
2023-01-11T18:05:19.314Z,17.27
2023-01-11T18:08:06.291Z,9.43
2023-01-11T18:10:54.320Z,12.38
2023-01-11T18:13:41.297Z,11.57
2023-01-11T18:16:25.594Z,11.48
2023-01-11T18:19:30.323Z,11.07
2023-01-11T18:22:10.383Z,11.38
2023-01-11T18:25:02.316Z,12.30
2023-01-11T18:27:53.328Z,16.17
2023-01-11T18:30:33.762Z,14.38
2023-01-11T18:33:30.314Z,16.92
2023-01-11T18:36:29.312Z,13.57
2023-01-11T18:39:22.323Z,17.65
2023-01-11T18:42:07.416Z,13.50
2023-01-11T18:44:57.287Z,22.35
2023-01-11T18:47:37.860Z,12.52
2023-01-11T18:50:27.316Z,12.50
2023-01-11T18:53:11.574Z,14.00
2023-01-11T18:55:58.316Z,15.82
2023-01-11T18:58:45.450Z,10.82
2023-01-11T19:01:25.356Z,11.27
2023-01-11T19:04:19.295Z,17.20
2023-01-11T19:07:06.305Z,12.35
2023-01-11T19:09:46.405Z,13.98
2023-01-11T19:12:33.302Z,14.05
2023-01-11T19:15:21.305Z,11.98
2023-01-11T19:18:09.311Z,13.68
2023-01-11T19:20:50.378Z,11.23
2023-01-11T19:23:37.316Z,13.57
2023-01-11T19:26:17.462Z,7.70
2023-01-11T19:29:04.314Z,9.13
2023-01-11T19:31:44.463Z,13.07
2023-01-11T19:34:31.331Z,15.05
2023-01-11T19:37:12.395Z,12.13
2023-01-11T19:39:59.317Z,13.35
2023-01-11T19:42:40.119Z,10.27
2023-01-11T19:45:26.304Z,12.88
2023-01-11T19:48:13.318Z,14.93
2023-01-11T19:51:12.359Z,13.88
2023-01-11T19:53:53.360Z,12.82
2023-01-11T19:59:22.303Z,14.63
2023-01-11T20:02:02.876Z,11.00
2023-01-11T20:04:49.312Z,9.90
2023-01-11T20:07:36.368Z,11.15
2023-01-11T20:10:16.291Z,15.90
2023-01-11T20:12:56.829Z,8.45
2023-01-11T20:15:43.364Z,11.02
2023-01-11T20:18:30.340Z,11.63
2023-01-11T20:21:11.345Z,9.20
2023-01-11T20:26:40.384Z,9.90
2023-01-11T20:29:20.846Z,6.80
2023-01-11T20:32:28.144Z,9.85
2023-01-11T20:35:08.550Z,13.02
2023-01-11T20:37:55.288Z,12.23
2023-01-11T20:40:44.422Z,13.25
2023-01-11T20:43:24.315Z,15.38
2023-01-11T20:46:06.195Z,13.00
2023-01-11T20:48:53.307Z,12.48
2023-01-11T20:51:41.443Z,13.73
2023-01-11T20:54:22.317Z,11.10
2023-01-11T20:57:12.491Z,12.35
2023-01-11T21:00:01.308Z,11.68
2023-01-11T21:02:41.820Z,11.27
2023-01-11T21:05:28.337Z,10.82
2023-01-11T21:08:08.777Z,14.80
2023-01-11T21:10:55.309Z,16.83
2023-01-11T21:13:42.400Z,15.18
2023-01-11T21:16:23.326Z,12.23
2023-01-11T21:19:04.822Z,16.55
2023-01-11T21:21:51.307Z,10.70
2023-01-11T21:24:31.843Z,8.95
2023-01-11T21:27:19.376Z,13.75
2023-01-11T21:30:06.297Z,12.80
2023-01-11T21:32:46.356Z,10.82
2023-01-11T21:35:33.315Z,13.98
2023-01-11T21:38:13.440Z,8.05
2023-01-11T21:41:00.308Z,10.77
2023-01-11T21:43:40.445Z,8.68
2023-01-11T21:46:27.433Z,11.70
2023-01-11T21:49:07.388Z,11.07
2023-01-11T21:51:54.332Z,9.55
2023-01-11T21:54:34.416Z,16.38
2023-01-11T21:57:21.323Z,9.25
2023-01-11T22:00:01.361Z,12.02
2023-01-11T22:02:55.308Z,12.48
2023-01-11T22:05:49.305Z,11.35
2023-01-11T22:08:36.306Z,13.43
2023-01-11T22:11:17.466Z,12.60
2023-01-11T22:14:04.312Z,12.43
2023-01-11T22:16:45.447Z,9.02
2023-01-11T22:19:32.323Z,13.88
2023-01-11T22:22:12.350Z,13.63
2023-01-11T22:24:59.309Z,10.38
2023-01-11T22:27:39.643Z,16.13
2023-01-11T22:30:33.316Z,13.23
2023-01-11T22:33:13.838Z,14.15
2023-01-11T22:36:11.330Z,10.90
2023-01-11T22:38:52.522Z,9.20
2023-01-11T22:41:39.301Z,14.63
2023-01-11T22:44:26.397Z,13.55
2023-01-11T22:47:06.325Z,10.52
2023-01-11T22:49:47.889Z,10.85
2023-01-11T22:52:35.326Z,13.48
2023-01-11T22:55:22.374Z,11.77
2023-01-11T22:58:03.314Z,9.77
2023-01-11T23:00:43.834Z,11.85
2023-01-11T23:03:30.416Z,14.23
2023-01-11T23:06:18.382Z,11.23
2023-01-11T23:08:59.356Z,11.82
2023-01-11T23:14:45.338Z,13.30
2023-01-11T23:17:25.793Z,11.90
2023-01-11T23:20:12.300Z,12.50
2023-01-11T23:22:59.385Z,7.68
2023-01-11T23:25:39.310Z,8.82
2023-01-11T23:28:29.759Z,9.85
2023-01-11T23:31:21.378Z,11.52
2023-01-11T23:34:10.304Z,13.25
2023-01-11T23:36:51.374Z,12.80
2023-01-11T23:39:39.321Z,9.23
2023-01-11T23:42:28.715Z,13.70
2023-01-11T23:45:16.306Z,13.45
2023-01-11T23:47:56.373Z,11.90
2023-01-11T23:50:43.314Z,14.52
2023-01-11T23:53:23.429Z,14.38
2023-01-11T23:56:17.336Z,11.93
2023-01-11T23:59:05.408Z,14.10
